createdAt,value
2023-05-25T00:01:06.232Z,2.30
2023-05-25T00:03:36.911Z,2.53
2023-05-25T00:06:07.225Z,2.60
2023-05-25T00:08:35.260Z,2.60
2023-05-25T00:11:05.582Z,3.00
2023-05-25T00:13:34.580Z,2.50
2023-05-25T00:16:06.685Z,2.40
2023-05-25T00:18:38.557Z,2.83
2023-05-25T00:21:08.416Z,2.73
2023-05-25T00:23:37.683Z,2.47
2023-05-25T00:26:06.298Z,2.10
2023-05-25T00:28:39.830Z,2.23
2023-05-25T00:31:08.148Z,3.03
2023-05-25T00:33:36.809Z,1.97
2023-05-25T00:36:06.488Z,2.97
2023-05-25T00:38:38.876Z,2.70
2023-05-25T00:41:07.030Z,2.57
2023-05-25T00:43:34.965Z,2.47
2023-05-25T00:46:04.553Z,2.60
2023-05-25T00:48:32.921Z,2.90
2023-05-25T00:51:01.934Z,2.47
2023-05-25T00:53:29.748Z,2.90
2023-05-25T00:56:06.226Z,2.70
2023-05-25T00:58:37.281Z,3.40
2023-05-25T01:01:06.362Z,2.60
2023-05-25T01:03:39.313Z,3.43
2023-05-25T01:06:13.099Z,3.40
2023-05-25T01:08:43.259Z,3.27
2023-05-25T01:11:13.350Z,3.37
2023-05-25T01:13:43.469Z,3.43
2023-05-25T01:16:11.304Z,3.30
2023-05-25T01:18:41.862Z,3.13
2023-05-25T01:21:18.189Z,3.27
2023-05-25T01:23:53.779Z,3.63
2023-05-25T01:26:24.878Z,3.30
2023-05-25T01:28:53.892Z,2.93
2023-05-25T01:31:23.819Z,2.80
2023-05-25T01:33:53.144Z,2.60
2023-05-25T01:36:22.373Z,3.43
2023-05-25T01:38:50.583Z,3.20
2023-05-25T01:41:18.326Z,3.73
2023-05-25T01:43:46.724Z,3.60
2023-05-25T01:46:23.397Z,3.33
2023-05-25T01:48:59.846Z,3.17
2023-05-25T01:51:45.114Z,4.57
2023-05-25T01:54:19.385Z,2.77
2023-05-25T01:56:50.016Z,3.50
2023-05-25T01:59:21.583Z,3.50
2023-05-25T02:01:52.939Z,4.03
2023-05-25T02:04:22.204Z,3.83
2023-05-25T02:06:52.588Z,3.47
2023-05-25T02:09:20.589Z,3.80
2023-05-25T02:11:48.260Z,3.53
2023-05-25T02:14:17.845Z,3.83
2023-05-25T02:16:47.060Z,3.63
2023-05-25T02:19:15.206Z,3.67
2023-05-25T02:21:43.241Z,4.40
2023-05-25T02:24:12.496Z,3.97
2023-05-25T02:26:40.744Z,3.47
2023-05-25T02:29:08.458Z,3.77
2023-05-25T02:31:36.224Z,3.67
2023-05-25T02:34:04.248Z,4.10
2023-05-25T02:36:32.085Z,4.43
2023-05-25T02:38:59.808Z,3.60
2023-05-25T02:41:29.005Z,3.80
2023-05-25T02:43:56.650Z,3.57
2023-05-25T02:46:24.446Z,4.10
2023-05-25T02:48:52.240Z,4.20
2023-05-25T02:51:19.882Z,4.00
2023-05-25T02:53:48.252Z,4.03
2023-05-25T02:56:16.250Z,3.80
2023-05-25T02:58:45.409Z,3.90
2023-05-25T03:01:18.714Z,4.50
2023-05-25T03:03:47.365Z,4.40
2023-05-25T03:06:16.058Z,4.23
2023-05-25T03:08:43.762Z,4.53
2023-05-25T03:11:11.580Z,4.17
2023-05-25T03:13:39.314Z,4.27
2023-05-25T03:16:09.224Z,4.17
2023-05-25T03:18:37.442Z,4.10
2023-05-25T03:21:05.529Z,4.77
2023-05-25T03:23:33.437Z,4.43
2023-05-25T03:26:01.142Z,4.27
2023-05-25T03:28:28.918Z,4.97
2023-05-25T03:30:57.789Z,3.77
2023-05-25T03:33:26.830Z,5.33
2023-05-25T03:35:54.518Z,4.67
2023-05-25T03:38:22.202Z,4.40
2023-05-25T03:40:49.919Z,4.70
2023-05-25T03:43:17.645Z,5.33
2023-05-25T03:45:45.484Z,5.23
2023-05-25T03:48:13.404Z,4.67
2023-05-25T03:50:42.576Z,5.13
2023-05-25T03:53:10.287Z,4.63
2023-05-25T03:55:38.414Z,5.00
2023-05-25T03:58:06.140Z,5.67
2023-05-25T04:00:33.952Z,5.63
2023-05-25T04:03:01.791Z,4.80
2023-05-25T04:05:29.630Z,4.73
2023-05-25T04:07:59.315Z,4.87
2023-05-25T04:10:26.956Z,4.67
2023-05-25T04:12:56.727Z,4.87
2023-05-25T04:15:25.098Z,4.70
2023-05-25T04:17:52.938Z,4.90
2023-05-25T04:20:20.980Z,5.13
2023-05-25T04:22:49.981Z,4.77
2023-05-25T04:25:19.983Z,4.63
2023-05-25T04:27:48.959Z,4.73
2023-05-25T04:30:17.334Z,4.90
2023-05-25T04:32:46.786Z,5.00
2023-05-25T04:35:15.439Z,4.37
2023-05-25T04:37:43.582Z,5.00
2023-05-25T04:40:14.081Z,5.00
2023-05-25T04:42:43.477Z,4.67
2023-05-25T04:45:11.918Z,4.57
2023-05-25T04:47:41.314Z,4.67
2023-05-25T04:50:10.370Z,5.17
2023-05-25T04:52:38.265Z,5.53
2023-05-25T04:55:07.855Z,5.40
2023-05-25T04:57:35.825Z,5.83
2023-05-25T05:00:07.150Z,4.90
2023-05-25T05:02:35.043Z,4.33
2023-05-25T05:05:02.901Z,4.77
2023-05-25T05:07:31.643Z,4.87
2023-05-25T05:09:59.426Z,4.97
2023-05-25T05:12:27.101Z,4.77
2023-05-25T05:14:56.015Z,4.80
2023-05-25T05:17:26.413Z,4.77
2023-05-25T05:19:54.389Z,4.37
2023-05-25T05:22:22.188Z,4.97
2023-05-25T05:24:50.965Z,5.17
2023-05-25T05:27:18.725Z,4.23
2023-05-25T05:29:46.611Z,4.70
2023-05-25T05:32:14.294Z,4.93
2023-05-25T05:34:43.355Z,4.80
2023-05-25T05:37:11.120Z,4.70
2023-05-25T05:39:38.876Z,5.57
2023-05-25T05:42:08.121Z,4.97
2023-05-25T05:44:36.155Z,4.50
2023-05-25T05:47:03.925Z,4.53
2023-05-25T05:49:32.240Z,5.10
2023-05-25T05:52:01.434Z,5.20
2023-05-25T05:54:29.194Z,4.17
2023-05-25T05:56:56.987Z,4.37
2023-05-25T05:59:24.985Z,4.30
2023-05-25T06:01:52.787Z,4.00
2023-05-25T06:04:20.980Z,4.10
2023-05-25T06:06:48.699Z,3.63
2023-05-25T06:09:18.868Z,3.23
2023-05-25T06:11:46.610Z,3.27
2023-05-25T06:14:14.435Z,3.60
2023-05-25T06:16:43.678Z,3.53
2023-05-25T06:19:11.772Z,3.43
2023-05-25T06:21:39.535Z,3.50
2023-05-25T06:24:08.277Z,4.00
2023-05-25T06:26:37.379Z,3.43
2023-05-25T06:29:05.088Z,3.13
2023-05-25T06:31:32.840Z,3.77
2023-05-25T06:34:00.695Z,3.97
2023-05-25T06:36:28.666Z,3.83
2023-05-25T06:38:56.498Z,3.50
2023-05-25T06:41:24.220Z,3.10
2023-05-25T06:43:53.284Z,3.70
2023-05-25T06:46:21.664Z,2.97
2023-05-25T06:48:49.529Z,4.00
2023-05-25T06:51:17.347Z,3.20
2023-05-25T06:53:46.436Z,3.00
2023-05-25T06:56:14.143Z,3.40
2023-05-25T06:58:42.157Z,2.60
2023-05-25T07:01:11.251Z,3.20
2023-05-25T07:03:39.526Z,2.80
2023-05-25T07:06:07.750Z,3.30
2023-05-25T07:08:36.315Z,3.50
2023-05-25T07:11:04.080Z,3.20
2023-05-25T07:13:31.912Z,2.90
2023-05-25T07:15:59.687Z,2.80
2023-05-25T07:18:28.912Z,2.80
2023-05-25T07:20:56.597Z,3.08
2023-05-25T07:23:24.406Z,2.30
2023-05-25T07:25:52.318Z,2.45
2023-05-25T07:28:20.219Z,2.33
2023-05-25T07:30:47.977Z,2.60
2023-05-25T07:33:15.715Z,2.45
2023-05-25T07:35:45.088Z,2.42
2023-05-25T07:38:12.919Z,2.50
2023-05-25T07:40:40.702Z,2.63
2023-05-25T07:43:09.230Z,2.78
2023-05-25T07:45:37.233Z,2.45
2023-05-25T07:48:07.217Z,2.50
2023-05-25T07:50:34.963Z,2.45
2023-05-25T07:53:04.016Z,2.05
2023-05-25T07:55:31.804Z,3.25
2023-05-25T07:57:59.588Z,2.30
2023-05-25T08:00:27.419Z,2.67
2023-05-25T08:02:55.462Z,2.85
2023-05-25T08:05:23.173Z,2.70
2023-05-25T08:07:50.997Z,2.60
2023-05-25T08:10:20.155Z,3.45
2023-05-25T08:12:50.209Z,2.60
2023-05-25T08:15:19.193Z,2.53
2023-05-25T08:17:49.423Z,2.67
2023-05-25T08:20:17.755Z,2.33
2023-05-25T08:22:45.589Z,2.17
2023-05-25T08:25:13.346Z,2.42
2023-05-25T08:27:42.715Z,2.33
2023-05-25T08:30:11.311Z,2.65
2023-05-25T08:32:39.380Z,2.30
2023-05-25T08:35:07.983Z,2.50
2023-05-25T08:37:37.636Z,2.22
2023-05-25T08:40:07.901Z,2.15
2023-05-25T08:42:37.309Z,2.20
2023-05-25T08:48:02.485Z,2.63
2023-05-25T08:50:31.994Z,1.98
2023-05-25T08:53:04.017Z,2.45
2023-05-25T08:55:36.807Z,2.58
2023-05-25T08:58:11.174Z,2.13
2023-05-25T09:00:46.279Z,2.40
2023-05-25T09:03:18.151Z,2.47
2023-05-25T09:05:46.910Z,2.70
2023-05-25T09:08:15.781Z,2.75
2023-05-25T09:10:44.184Z,2.00
2023-05-25T09:15:45.285Z,2.53
2023-05-25T09:18:13.268Z,2.30
2023-05-25T09:20:44.270Z,2.63
2023-05-25T09:23:43.494Z,2.72
2023-05-25T09:26:11.691Z,2.55
2023-05-25T09:28:47.652Z,2.58
2023-05-25T09:31:17.592Z,2.90
2023-05-25T09:33:46.999Z,2.72
2023-05-25T09:36:16.672Z,2.20
2023-05-25T09:38:45.283Z,2.17
2023-05-25T09:41:13.382Z,2.42
2023-05-25T09:43:46.812Z,1.95
2023-05-25T09:46:23.757Z,2.17
2023-05-25T09:48:53.635Z,2.70
2023-05-25T09:51:22.442Z,2.83
2023-05-25T09:53:50.906Z,2.50
2023-05-25T09:56:19.123Z,2.53
2023-05-25T09:58:46.837Z,3.17
2023-05-25T10:01:14.845Z,2.28
2023-05-25T10:03:59.820Z,2.88
2023-05-25T10:06:33.635Z,2.50
2023-05-25T10:09:04.971Z,3.15
2023-05-25T10:11:36.213Z,2.42
2023-05-25T10:14:07.704Z,2.75
2023-05-25T10:16:36.035Z,2.97
2023-05-25T10:19:14.950Z,2.00
2023-05-25T10:21:44.267Z,2.72
2023-05-25T10:24:21.733Z,2.00
2023-05-25T10:26:55.101Z,2.92
2023-05-25T10:29:25.055Z,2.92
2023-05-25T10:31:54.445Z,2.33
2023-05-25T10:34:23.917Z,2.40
2023-05-25T10:36:52.573Z,2.30
2023-05-25T10:39:21.297Z,2.28
2023-05-25T10:41:50.164Z,2.83
2023-05-25T10:44:18.736Z,2.53
2023-05-25T10:46:46.830Z,3.72
2023-05-25T10:49:14.581Z,3.22
2023-05-25T10:51:43.877Z,2.85
2023-05-25T10:54:14.743Z,3.22
2023-05-25T10:57:09.659Z,2.75
2023-05-25T10:59:37.871Z,3.00
2023-05-25T11:02:09.359Z,2.58
2023-05-25T11:04:38.082Z,2.47
2023-05-25T11:07:13.539Z,2.38
2023-05-25T11:09:45.962Z,2.72
2023-05-25T11:12:20.956Z,2.45
2023-05-25T11:15:18.866Z,2.20
2023-05-25T11:17:48.106Z,2.53
2023-05-25T11:20:33.108Z,2.03
2023-05-25T11:23:23.969Z,3.00
2023-05-25T11:25:51.693Z,2.22
2023-05-25T11:28:19.452Z,2.47
2023-05-25T11:30:47.199Z,2.53
2023-05-25T11:33:17.053Z,2.55
2023-05-25T11:35:45.530Z,2.63
2023-05-25T11:38:15.958Z,2.47
2023-05-25T11:40:43.665Z,2.67
2023-05-25T11:43:13.609Z,2.00
2023-05-25T11:45:41.464Z,1.92
2023-05-25T11:48:14.754Z,2.33
2023-05-25T11:50:42.626Z,2.38
2023-05-25T11:53:10.901Z,2.03
2023-05-25T11:55:41.047Z,2.28
2023-05-25T11:58:08.896Z,2.50
2023-05-25T12:00:36.601Z,2.10
2023-05-25T12:03:05.799Z,2.35
2023-05-25T12:05:40.276Z,2.58
2023-05-25T12:08:08.259Z,3.10
2023-05-25T12:10:52.248Z,2.20
2023-05-25T12:13:19.977Z,2.38
2023-05-25T12:15:48.000Z,2.55
2023-05-25T12:18:16.067Z,2.20
2023-05-25T12:20:43.956Z,2.92
2023-05-25T12:23:12.141Z,2.42
2023-05-25T12:25:50.285Z,2.47
2023-05-25T12:28:20.436Z,2.03
2023-05-25T12:30:48.350Z,2.15
2023-05-25T12:33:16.496Z,2.53
2023-05-25T12:35:48.719Z,2.60
2023-05-25T12:38:18.465Z,2.10
2023-05-25T12:40:46.446Z,2.30
2023-05-25T12:43:16.985Z,2.80
2023-05-25T12:45:46.266Z,2.38
2023-05-25T12:48:14.167Z,2.83
2023-05-25T12:50:59.856Z,2.72
2023-05-25T12:53:29.042Z,2.63
2023-05-25T12:56:04.249Z,2.63
2023-05-25T12:58:32.004Z,2.75
2023-05-25T13:01:02.633Z,2.53
2023-05-25T13:03:30.842Z,2.65
2023-05-25T13:06:02.370Z,2.45
2023-05-25T13:08:30.505Z,2.25
2023-05-25T13:10:58.380Z,2.30
2023-05-25T13:13:26.888Z,2.60
2023-05-25T13:15:54.793Z,2.72
2023-05-25T13:18:23.913Z,2.88
2023-05-25T13:20:55.174Z,2.83
2023-05-25T13:23:24.226Z,2.55
2023-05-25T13:25:51.897Z,2.10
2023-05-25T13:28:19.601Z,3.40
2023-05-25T13:30:47.303Z,2.58
2023-05-25T13:33:15.060Z,2.50
2023-05-25T13:35:58.279Z,2.70
2023-05-25T13:38:27.171Z,2.10
2023-05-25T13:40:54.890Z,2.65
2023-05-25T13:43:22.686Z,2.35
2023-05-25T13:45:50.484Z,2.78
2023-05-25T13:48:18.585Z,2.80
2023-05-25T13:50:47.855Z,2.40
2023-05-25T13:53:15.796Z,2.65
2023-05-25T13:55:43.946Z,2.13
2023-05-25T13:58:11.650Z,2.58
2023-05-25T14:00:39.458Z,2.38
2023-05-25T14:03:07.453Z,3.00
2023-05-25T14:05:35.224Z,2.65
2023-05-25T14:08:04.882Z,2.78
2023-05-25T14:10:32.862Z,3.28
2023-05-25T14:13:00.968Z,2.75
2023-05-25T14:15:28.733Z,2.50
2023-05-25T14:17:57.683Z,2.63
2023-05-25T14:20:26.556Z,2.15
2023-05-25T14:22:54.584Z,2.08
2023-05-25T14:25:23.814Z,2.15
2023-05-25T14:27:52.600Z,2.67
2023-05-25T14:30:21.015Z,2.60
2023-05-25T14:32:48.758Z,2.40
2023-05-25T14:35:16.477Z,2.38
2023-05-25T14:37:44.260Z,2.20
2023-05-25T14:40:13.204Z,3.03
2023-05-25T14:42:42.298Z,2.88
2023-05-25T14:45:11.692Z,2.47
2023-05-25T14:47:40.828Z,2.40
2023-05-25T14:50:09.690Z,2.80
2023-05-25T14:52:37.761Z,2.65
2023-05-25T14:55:06.040Z,2.47
2023-05-25T14:57:33.739Z,2.80
2023-05-25T15:00:03.602Z,2.22
2023-05-25T15:02:31.490Z,2.70
2023-05-25T15:04:59.513Z,3.42
2023-05-25T15:07:27.266Z,2.45
2023-05-25T15:09:54.978Z,2.55
2023-05-25T15:12:23.601Z,3.20
2023-05-25T15:14:51.317Z,2.78
2023-05-25T15:17:20.356Z,2.50
2023-05-25T15:19:48.345Z,2.30
2023-05-25T15:22:16.315Z,2.38
2023-05-25T15:24:44.062Z,2.67
2023-05-25T15:27:11.835Z,2.38
2023-05-25T15:29:39.815Z,2.65
2023-05-25T15:32:10.264Z,2.30
2023-05-25T15:34:39.681Z,2.08
2023-05-25T15:37:07.793Z,2.45
2023-05-25T15:39:35.553Z,2.55
2023-05-25T15:42:06.469Z,2.42
2023-05-25T15:44:35.649Z,2.70
2023-05-25T15:47:03.776Z,3.97
2023-05-25T15:49:32.178Z,2.42
2023-05-25T15:52:03.804Z,2.60
2023-05-25T15:54:32.180Z,2.40
2023-05-25T15:57:00.672Z,2.60
2023-05-25T15:59:28.381Z,2.42
2023-05-25T16:01:56.233Z,2.17
2023-05-25T16:04:24.416Z,2.33
2023-05-25T16:06:53.813Z,2.90
2023-05-25T16:09:22.851Z,2.88
2023-05-25T16:11:51.465Z,3.60
2023-05-25T16:14:19.519Z,3.17
2023-05-25T16:16:48.812Z,3.03
2023-05-25T16:19:17.169Z,2.92
2023-05-25T16:21:48.097Z,3.60
2023-05-25T16:24:26.900Z,3.03
2023-05-25T16:27:09.202Z,2.85
2023-05-25T16:29:42.102Z,2.63
2023-05-25T16:32:09.901Z,3.03
2023-05-25T16:34:37.696Z,2.33
2023-05-25T16:37:06.008Z,2.88
2023-05-25T16:39:34.037Z,4.18
2023-05-25T16:42:05.011Z,2.30
2023-05-25T16:44:33.062Z,2.38
2023-05-25T16:47:00.864Z,1.98
2023-05-25T16:49:28.612Z,2.45
2023-05-25T16:51:56.327Z,2.63
2023-05-25T16:54:24.419Z,2.30
2023-05-25T16:56:52.093Z,2.40
2023-05-25T16:59:22.981Z,2.15
2023-05-25T17:01:51.192Z,2.47
2023-05-25T17:04:19.077Z,2.20
2023-05-25T17:06:46.865Z,2.47
2023-05-25T17:09:14.749Z,2.90
2023-05-25T17:11:42.424Z,2.60
2023-05-25T17:14:10.490Z,2.67
2023-05-25T17:16:39.936Z,2.10
2023-05-25T17:19:07.808Z,2.90
2023-05-25T17:21:35.975Z,3.08
2023-05-25T17:24:03.955Z,2.67
2023-05-25T17:26:33.353Z,3.65
2023-05-25T17:29:01.661Z,2.70
2023-05-25T17:31:29.793Z,2.58
2023-05-25T17:33:59.107Z,2.33
2023-05-25T17:36:26.937Z,2.80
2023-05-25T17:38:54.962Z,2.50
2023-05-25T17:41:23.683Z,2.97
2023-05-25T17:43:51.640Z,2.75
2023-05-25T17:46:19.662Z,3.10
2023-05-25T17:48:47.372Z,2.88
2023-05-25T17:51:16.753Z,2.88
2023-05-25T17:53:44.919Z,2.97
2023-05-25T17:56:12.805Z,2.90
2023-05-25T17:58:41.026Z,2.97
2023-05-25T18:01:09.092Z,4.88
2023-05-25T18:03:37.063Z,3.38
2023-05-25T18:06:05.124Z,3.33
2023-05-25T18:08:34.416Z,3.03
2023-05-25T18:11:02.534Z,3.63
2023-05-25T18:13:30.281Z,3.40
2023-05-25T18:15:58.050Z,3.33
2023-05-25T18:18:25.787Z,2.78
2023-05-25T18:20:55.451Z,3.63
2023-05-25T18:23:23.781Z,3.42
2023-05-25T18:25:58.124Z,3.53
2023-05-25T18:28:25.810Z,4.32
2023-05-25T18:30:54.054Z,3.88
2023-05-25T18:33:23.451Z,3.80
2023-05-25T18:35:51.161Z,3.60
2023-05-25T18:38:18.877Z,3.47
2023-05-25T18:40:47.214Z,4.25
2023-05-25T18:43:16.433Z,3.70
2023-05-25T18:45:45.540Z,4.20
2023-05-25T18:48:13.553Z,4.03
2023-05-25T18:50:44.488Z,3.72
2023-05-25T18:53:12.693Z,4.30
2023-05-25T18:55:40.624Z,5.22
2023-05-25T18:58:08.569Z,4.45
2023-05-25T19:00:37.861Z,4.32
2023-05-25T19:03:06.747Z,4.38
2023-05-25T19:05:34.662Z,4.75
2023-05-25T19:08:03.855Z,6.97
2023-05-25T19:10:33.182Z,4.93
2023-05-25T19:13:00.971Z,4.57
2023-05-25T19:15:28.699Z,4.43
2023-05-25T19:18:00.579Z,4.43
2023-05-25T19:20:28.652Z,4.15
2023-05-25T19:22:57.419Z,5.05
2023-05-25T19:25:26.782Z,5.22
2023-05-25T19:27:55.184Z,4.10
2023-05-25T19:30:25.919Z,4.63
2023-05-25T19:32:53.903Z,4.47
2023-05-25T19:35:24.290Z,4.70
2023-05-25T19:37:52.173Z,4.50
2023-05-25T19:40:20.466Z,6.20
2023-05-25T19:42:48.278Z,4.93
2023-05-25T19:45:19.283Z,6.93
2023-05-25T19:47:57.819Z,4.32
2023-05-25T19:50:32.881Z,4.78
2023-05-25T19:53:02.913Z,4.93
2023-05-25T19:55:34.435Z,5.10
2023-05-25T19:58:08.830Z,4.03
2023-05-25T20:00:37.470Z,3.97
2023-05-25T20:03:12.026Z,4.88
2023-05-25T20:05:44.207Z,4.70
2023-05-25T20:08:15.268Z,4.78
2023-05-25T20:10:44.834Z,4.35
2023-05-25T20:13:14.118Z,4.50
2023-05-25T20:15:47.416Z,4.65
2023-05-25T20:18:23.828Z,4.35
2023-05-25T20:20:54.338Z,5.22
2023-05-25T20:23:22.880Z,4.05
2023-05-25T20:25:51.099Z,4.68
2023-05-25T20:28:23.901Z,4.90
2023-05-25T20:30:54.259Z,5.03
2023-05-25T20:33:24.620Z,5.20
2023-05-25T20:35:54.119Z,5.57
2023-05-25T20:38:28.022Z,4.90
2023-05-25T20:40:58.153Z,5.35
2023-05-25T20:43:26.831Z,5.93
2023-05-25T20:45:56.403Z,6.25
2023-05-25T20:48:25.731Z,5.97
2023-05-25T20:50:55.680Z,6.20
2023-05-25T20:53:36.773Z,5.65
2023-05-25T20:56:07.364Z,5.57
2023-05-25T20:58:38.041Z,5.28
2023-05-25T21:01:10.077Z,5.50
2023-05-25T21:03:38.698Z,5.63
2023-05-25T21:06:13.458Z,6.20
2023-05-25T21:08:44.489Z,5.33
2023-05-25T21:11:16.025Z,5.90
2023-05-25T21:13:47.590Z,6.30
2023-05-25T21:16:17.400Z,5.93
2023-05-25T21:18:48.007Z,5.07
2023-05-25T21:21:18.404Z,4.93
2023-05-25T21:23:47.342Z,5.40
2023-05-25T21:26:15.834Z,5.80
2023-05-25T21:28:46.160Z,5.30
2023-05-25T21:31:15.371Z,6.17
2023-05-25T21:33:43.734Z,5.90
2023-05-25T21:36:12.218Z,4.77
2023-05-25T21:38:42.014Z,5.77
2023-05-25T21:41:17.836Z,5.43
2023-05-25T21:43:46.159Z,5.27
2023-05-25T21:46:14.954Z,5.70
2023-05-25T21:48:43.207Z,5.10
2023-05-25T21:51:26.692Z,5.60
2023-05-25T21:53:58.101Z,4.90
2023-05-25T21:56:27.820Z,4.90
2023-05-25T21:58:58.488Z,5.07
2023-05-25T22:01:29.958Z,4.87
2023-05-25T22:03:59.466Z,4.77
2023-05-25T22:06:29.369Z,4.53
2023-05-25T22:09:01.163Z,5.20
2023-05-25T22:11:30.520Z,4.30
2023-05-25T22:13:59.617Z,4.53
2023-05-25T22:16:28.614Z,5.00
2023-05-25T22:45:17.902Z,4.83
2023-05-25T22:47:47.066Z,4.20
2023-05-25T22:50:17.031Z,4.20
2023-05-25T22:52:45.160Z,4.30
2023-05-25T22:55:13.192Z,3.97
2023-05-25T22:57:42.749Z,4.00
2023-05-25T23:00:11.124Z,4.03
2023-05-25T23:02:41.208Z,4.20
2023-05-25T23:05:11.433Z,4.17
2023-05-25T23:07:41.331Z,3.73
2023-05-25T23:10:10.931Z,4.17
2023-05-25T23:12:41.976Z,4.50
2023-05-25T23:15:13.792Z,4.27
2023-05-25T23:17:42.740Z,3.60
2023-05-25T23:20:12.487Z,4.00
2023-05-25T23:22:41.858Z,4.33
2023-05-25T23:25:13.988Z,4.07
2023-05-25T23:27:43.234Z,4.00
2023-05-25T23:30:15.883Z,3.60
2023-05-25T23:32:48.114Z,3.60
2023-05-25T23:35:16.531Z,4.20
2023-05-25T23:37:46.796Z,4.10
2023-05-25T23:40:21.872Z,4.13
2023-05-25T23:42:49.878Z,3.83
2023-05-25T23:45:22.852Z,4.20
2023-05-25T23:47:53.055Z,3.77
2023-05-25T23:50:22.898Z,3.53
2023-05-25T23:52:52.043Z,4.07
2023-05-25T23:55:20.915Z,4.27
2023-05-25T23:57:49.786Z,4.73
